Terminal Aerodrome Forecast
Issued by NWS Duluth, MN

Home | Current Version | Previous Version | Text Only | Print | Product List | Glossary On
Versions: 1 2 3 4 5 6 7 8 9 10 11 12 13 14 15 16 17 18 19 20 21
000
FTUS43 KDLH 221132
TAFDLH
TAF
KDLH 221132Z 2212/2312 32005KT 3SM -DZ BR BKN004 OVC010
      TEMPO 2212/2215 1 1/2SM -DZ BR VV003
     FM221500 34004KT 4SM BR OVC005
     FM221700 32005KT 5SM BR OVC007
     FM230500 29005KT 1 1/2SM BR OVC004=

USA.gov is the U.S. government's official web portal to all federal, state and local government web resources and services.